Time;durP1;ratioP1;P1;durP2;ratioP2;P2;SDS_P1;SDS_P2;PMS_P1;PMS_P2;Temp;Humidity;BMP_temperature;BMP_pressure;BME280_temperature;BME280_humidity;BME280_pressure;Samples;Min_cycle;Max_cycle;Signal;HPM_P1;HPM_P2
2022/08/02 00:02:19;;;;;;;2.38;1.77;;;12.90;99.90;;;;;;5075283;28;20047;-60
2022/08/02 00:04:45;;;;;;;3.58;1.58;;;13.00;99.90;;;;;;5075229;28;20408;-61
2022/08/02 00:07:11;;;;;;;2.65;1.55;;;13.40;99.90;;;;;;5074974;28;20514;-60
2022/08/02 00:09:37;;;;;;;5.18;1.77;;;13.10;99.90;;;;;;5075221;28;20067;-60
2022/08/02 00:12:03;;;;;;;3.50;1.52;;;13.10;99.90;;;;;;5075070;28;20037;-60
2022/08/02 00:14:29;;;;;;;3.13;1.45;;;13.10;99.90;;;;;;5075074;28;20042;-60
2022/08/02 00:16:55;;;;;;;2.45;0.98;;;13.10;99.90;;;;;;5074232;28;20127;-60
2022/08/02 00:19:20;;;;;;;4.30;1.45;;;13.00;99.90;;;;;;5074992;28;20058;-60
2022/08/02 00:21:46;;;;;;;2.85;1.33;;;13.10;99.90;;;;;;5074974;28;20372;-60
2022/08/02 00:24:12;;;;;;;2.50;1.30;;;13.10;99.90;;;;;;5074858;28;20036;-60
2022/08/02 00:26:38;;;;;;;2.30;1.45;;;13.10;99.90;;;;;;5074857;28;20236;-59
2022/08/02 00:29:04;;;;;;;2.95;1.38;;;13.10;99.90;;;;;;5074592;28;20040;-60
2022/08/02 00:31:29;;;;;;;2.28;1.25;;;13.10;99.90;;;;;;5074697;28;20442;-60
2022/08/02 00:33:55;;;;;;;8.75;1.58;;;13.10;99.90;;;;;;5074699;28;20032;-60
2022/08/02 00:36:21;;;;;;;3.47;1.65;;;13.10;99.90;;;;;;5073074;28;20128;-60
2022/08/02 00:38:47;;;;;;;2.80;1.35;;;13.10;99.90;;;;;;5074614;28;20491;-61
2022/08/02 00:41:15;;;;;;;2.42;1.38;;;13.10;99.90;;;;;;5074287;28;20048;-60
2022/08/02 00:43:42;;;;;;;3.05;1.75;;;13.00;99.90;;;;;;5072897;28;20048;-60
2022/08/02 00:46:08;;;;;;;2.90;1.45;;;13.00;99.90;;;;;;5074194;28;20037;-61
2022/08/02 00:48:34;;;;;;;5.60;1.77;;;13.00;99.90;;;;;;5074439;28;20036;-60
2022/08/02 00:50:59;;;;;;;2.40;1.15;;;12.90;99.90;;;;;;5074140;28;20043;-60
2022/08/02 00:53:25;;;;;;;4.85;1.60;;;12.90;99.90;;;;;;5074271;28;20029;-60
2022/08/02 00:55:51;;;;;;;3.33;1.35;;;12.80;99.90;;;;;;5074176;28;20044;-60
2022/08/02 00:58:16;;;;;;;4.88;1.40;;;12.90;99.90;;;;;;5072704;28;20480;-60
2022/08/02 01:00:42;;;;;;;3.13;1.70;;;12.80;99.90;;;;;;5072952;28;20032;-60
2022/08/02 01:03:08;;;;;;;3.30;1.60;;;12.80;99.90;;;;;;5074047;28;20377;-60
2022/08/02 01:05:33;;;;;;;2.75;1.55;;;13.10;99.90;;;;;;5074045;28;20480;-60
2022/08/02 01:07:59;;;;;;;1.50;1.27;;;12.80;99.90;;;;;;5074060;28;20116;-60
2022/08/02 01:10:25;;;;;;;4.72;1.50;;;12.70;99.90;;;;;;5073989;28;20040;-60
2022/08/02 01:12:50;;;;;;;3.85;1.27;;;12.90;99.90;;;;;;5073911;28;20045;-60
2022/08/02 01:15:17;;;;;;;1.92;1.13;;;12.80;99.90;;;;;;5073650;28;20060;-60
2022/08/02 01:17:55;;;;;;;2.75;1.55;;;12.80;99.90;;;;;;5073742;28;20420;-60
2022/08/02 01:20:48;;;;;;;3.08;1.23;;;12.80;99.90;;;;;;5073778;28;20388;-60
2022/08/02 01:23:37;;;;;;;3.58;1.27;;;12.80;99.90;;;;;;5073677;28;20036;-60
2022/08/02 01:26:18;;;;;;;4.22;1.10;;;12.70;99.90;;;;;;5073690;28;20040;-60
2022/08/02 01:29:00;;;;;;;2.42;1.50;;;12.70;99.90;;;;;;5073059;28;20033;-60
2022/08/02 01:31:38;;;;;;;2.20;1.38;;;12.70;99.90;;;;;;5073619;28;20036;-60
2022/08/02 01:34:28;;;;;;;2.63;1.42;;;12.70;99.90;;;;;;5073560;28;20075;-60
2022/08/02 01:37:03;;;;;;;2.25;1.08;;;12.70;99.90;;;;;;5073438;28;20179;-60
2022/08/02 01:39:32;;;;;;;1.73;1.15;;;12.70;99.90;;;;;;5073506;28;20407;-60
2022/08/02 01:42:00;;;;;;;3.30;1.50;;;12.60;99.90;;;;;;5071885;28;20125;-60
2022/08/02 01:44:29;;;;;;;3.88;1.50;;;12.60;99.90;;;;;;5073092;28;20097;-60
2022/08/02 01:47:04;;;;;;;3.22;1.38;;;12.50;99.90;;;;;;5073380;28;20041;-60
2022/08/02 01:49:33;;;;;;;5.40;1.65;;;12.60;99.90;;;;;;5073270;28;20048;-60
2022/08/02 01:54:53;;;;;;;4.60;1.55;;;12.60;99.90;;;;;;5073273;28;20570;-60
2022/08/02 01:57:20;;;;;;;2.58;1.55;;;12.60;99.90;;;;;;5072842;28;20053;-60
2022/08/02 01:59:48;;;;;;;6.30;1.63;;;12.50;99.90;;;;;;5073214;28;20090;-60
2022/08/02 02:02:15;;;;;;;2.78;1.70;;;12.50;99.90;;;;;;5072898;28;20086;-60
2022/08/02 02:04:42;;;;;;;3.92;1.67;;;13.00;99.90;;;;;;5073132;28;20032;-60
2022/08/02 02:07:09;;;;;;;4.07;1.92;;;12.50;99.90;;;;;;5071546;28;20061;-60
2022/08/02 02:09:37;;;;;;;7.65;2.20;;;12.40;99.90;;;;;;5072804;28;20083;-60
2022/08/02 02:12:05;;;;;;;2.72;1.25;;;12.40;99.90;;;;;;5073114;28;20115;-61
2022/08/02 02:14:32;;;;;;;2.50;1.35;;;12.40;99.90;;;;;;5072746;28;20106;-60
2022/08/02 02:16:59;;;;;;;2.67;1.63;;;12.40;99.90;;;;;;5072521;28;20110;-60
2022/08/02 02:19:26;;;;;;;4.65;1.52;;;12.30;99.90;;;;;;5072791;28;20419;-60
2022/08/02 02:21:51;;;;;;;3.97;1.80;;;12.70;99.90;;;;;;5072922;28;20122;-60
2022/08/02 02:24:17;;;;;;;5.03;1.88;;;12.30;99.90;;;;;;5073004;28;20083;-61
2022/08/02 02:26:45;;;;;;;2.15;1.40;;;12.60;99.90;;;;;;5072644;28;20405;-60
2022/08/02 02:29:13;;;;;;;3.60;1.67;;;12.30;99.90;;;;;;5072932;28;20044;-60
2022/08/02 02:31:42;;;;;;;2.80;1.75;;;12.30;99.90;;;;;;5072640;28;20055;-60
2022/08/02 02:34:12;;;;;;;5.18;2.20;;;12.30;99.90;;;;;;5072850;28;20041;-60
2022/08/02 02:36:47;;;;;;;5.75;2.00;;;12.40;99.90;;;;;;5072453;28;20178;-60
2022/08/02 02:39:14;;;;;;;6.45;1.63;;;12.60;99.90;;;;;;5074149;28;20082;-60
2022/08/02 02:41:42;;;;;;;5.35;1.83;;;12.30;99.90;;;;;;5075250;28;20045;-60
2022/08/02 02:44:12;;;;;;;2.63;1.92;;;12.30;99.90;;;;;;5076569;28;20052;-60
2022/08/02 02:46:39;;;;;;;3.70;1.90;;;12.30;99.90;;;;;;5076752;28;20055;-60
2022/08/02 02:49:08;;;;;;;3.15;1.63;;;12.30;99.90;;;;;;5076704;28;20151;-59
2022/08/02 02:51:34;;;;;;;3.00;1.83;;;12.30;99.90;;;;;;5058426;28;20099;-60
2022/08/02 02:54:01;;;;;;;4.88;1.85;;;12.30;99.90;;;;;;5076634;28;20476;-60
2022/08/02 02:56:27;;;;;;;9.43;2.53;;;12.30;99.90;;;;;;5074915;28;20080;-60
2022/08/02 02:58:53;;;;;;;3.65;1.67;;;12.30;99.90;;;;;;5075307;28;20036;-60
2022/08/02 03:01:26;;;;;;;2.22;1.40;;;12.30;99.90;;;;;;5076473;28;20043;-60
2022/08/02 03:04:12;;;;;;;3.22;1.80;;;12.30;99.90;;;;;;5076184;28;20045;-60
2022/08/02 03:06:39;;;;;;;4.25;1.67;;;12.30;99.90;;;;;;5074372;28;20063;-60
2022/08/02 03:09:06;;;;;;;6.45;1.70;;;12.30;99.90;;;;;;5076065;28;20488;-59
2022/08/02 03:11:33;;;;;;;5.00;2.00;;;12.30;99.90;;;;;;5076268;28;20111;-60
2022/08/02 03:14:02;;;;;;;4.90;2.40;;;12.10;99.90;;;;;;5076240;28;20043;-59
2022/08/02 03:16:28;;;;;;;4.68;2.33;;;12.20;99.90;;;;;;5075683;28;20197;-61
2022/08/02 03:18:56;;;;;;;4.28;2.08;;;12.20;99.90;;;;;;5076153;28;20036;-60
2022/08/02 03:21:22;;;;;;;1.98;1.77;;;12.20;99.90;;;;;;5075769;28;20411;-60
2022/08/02 03:23:48;;;;;;;3.00;2.08;;;12.20;99.90;;;;;;5074884;28;20064;-60
2022/08/02 03:26:14;;;;;;;7.10;2.20;;;12.20;99.90;;;;;;5074758;28;20476;-59
2022/08/02 03:28:40;;;;;;;4.70;1.75;;;12.20;99.90;;;;;;5075934;28;20090;-60
2022/08/02 03:31:06;;;;;;;2.38;1.65;;;12.20;99.90;;;;;;5075833;28;20435;-59
2022/08/02 03:33:33;;;;;;;3.00;1.80;;;12.20;99.90;;;;;;5075843;28;20044;-60
2022/08/02 03:36:04;;;;;;;4.35;1.92;;;12.20;99.90;;;;;;5074491;28;20048;-59
2022/08/02 03:38:32;;;;;;;5.93;2.25;;;12.20;99.90;;;;;;5074257;28;20052;-60
2022/08/02 03:41:00;;;;;;;3.38;2.10;;;12.20;99.90;;;;;;5075632;28;20047;-60
2022/08/02 03:43:27;;;;;;;5.00;2.05;;;12.20;99.90;;;;;;5075782;28;20037;-59
2022/08/02 03:45:54;;;;;;;4.00;2.17;;;12.20;99.90;;;;;;5075605;28;20037;-60
2022/08/02 03:48:21;;;;;;;2.47;1.63;;;12.20;99.90;;;;;;5075597;28;20040;-60
2022/08/02 03:50:47;;;;;;;4.55;2.40;;;12.20;99.90;;;;;;5073625;28;20416;-60
2022/08/02 03:53:15;;;;;;;4.35;2.13;;;12.20;99.90;;;;;;5075549;28;20033;-60
2022/08/02 03:55:41;;;;;;;3.30;2.08;;;12.20;99.90;;;;;;5075146;28;20032;-60
2022/08/02 03:58:07;;;;;;;3.90;2.05;;;12.20;99.90;;;;;;5075425;28;20040;-61
2022/08/02 04:00:33;;;;;;;3.67;1.88;;;12.20;99.90;;;;;;5075358;28;20047;-59
2022/08/02 04:02:58;;;;;;;3.55;2.10;;;12.00;99.90;;;;;;5073805;28;20413;-59
2022/08/02 04:05:24;;;;;;;5.78;1.92;;;12.30;99.90;;;;;;5074130;28;20035;-59
2022/08/02 04:07:50;;;;;;;2.45;1.42;;;12.30;99.90;;;;;;5074945;28;20032;-60
2022/08/02 04:10:17;;;;;;;2.72;1.92;;;12.30;99.90;;;;;;5075206;28;20043;-60
2022/08/02 04:12:42;;;;;;;2.42;1.83;;;12.20;99.90;;;;;;5075092;28;20497;-60
2022/08/02 04:15:11;;;;;;;3.33;2.00;;;12.30;99.90;;;;;;5074868;28;20135;-60
2022/08/02 04:17:41;;;;;;;6.13;1.65;;;12.30;99.90;;;;;;5073761;28;20438;-60
2022/08/02 04:20:34;;;;;;;4.00;1.70;;;12.30;99.90;;;;;;5074739;28;20036;-60
2022/08/02 04:23:10;;;;;;;5.70;1.70;;;12.30;99.90;;;;;;5073644;28;20503;-60
2022/08/02 04:25:37;;;;;;;2.42;1.50;;;12.30;99.90;;;;;;5074885;28;20072;-60
2022/08/02 04:28:04;;;;;;;3.05;1.77;;;12.40;99.90;;;;;;5073361;28;20445;-60
2022/08/02 04:30:30;;;;;;;2.85;2.08;;;12.40;99.90;;;;;;5074728;28;20164;-60
2022/08/02 04:32:57;;;;;;;2.38;1.70;;;12.40;99.90;;;;;;5074468;28;20047;-60
2022/08/02 04:35:23;;;;;;;5.90;2.08;;;12.50;99.90;;;;;;5074717;28;20079;-59
2022/08/02 04:37:49;;;;;;;4.47;2.38;;;12.50;99.90;;;;;;5073027;28;20460;-59
2022/08/02 04:40:15;;;;;;;2.97;1.58;;;12.60;99.90;;;;;;5074737;28;20036;-59
2022/08/02 04:42:41;;;;;;;2.75;1.65;;;12.60;99.90;;;;;;5074551;28;20383;-60
2022/08/02 04:45:08;;;;;;;4.93;2.33;;;12.60;99.90;;;;;;5072949;28;20040;-60
2022/08/02 04:47:35;;;;;;;3.30;2.00;;;12.70;99.90;;;;;;5074358;28;20044;-59
2022/08/02 04:50:00;;;;;;;2.88;1.80;;;12.80;99.90;;;;;;5074100;28;20079;-59
2022/08/02 04:52:27;;;;;;;3.40;1.95;;;12.80;99.90;;;;;;5074349;28;20076;-60
2022/08/02 04:54:52;;;;;;;2.95;1.70;;;12.80;99.90;;;;;;5074308;28;20032;-59
2022/08/02 05:00:07;;;;;;;4.85;2.00;;;12.90;99.90;;;;;;5074218;28;20499;-59
2022/08/02 05:02:34;;;;;;;3.38;1.67;;;13.00;99.90;;;;;;5073121;28;20044;-60
2022/08/02 05:05:00;;;;;;;4.22;2.00;;;13.00;99.90;;;;;;5074080;28;20040;-60
2022/08/02 05:07:25;;;;;;;3.80;1.80;;;13.10;99.90;;;;;;5073721;28;20044;-60
2022/08/02 05:09:51;;;;;;;2.33;1.80;;;13.40;99.90;;;;;;5073987;28;20051;-60
2022/08/02 05:12:18;;;;;;;2.65;1.45;;;13.20;99.90;;;;;;5074226;28;20154;-60
2022/08/02 05:14:44;;;;;;;3.72;1.85;;;13.60;99.90;;;;;;5072722;28;20048;-60
2022/08/02 05:17:09;;;;;;;4.50;1.80;;;13.80;99.90;;;;;;5073454;28;20174;-60
2022/08/02 05:19:35;;;;;;;6.07;1.85;;;13.40;99.90;;;;;;5073795;28;20089;-59
2022/08/02 05:22:00;;;;;;;3.17;1.60;;;13.60;99.90;;;;;;5073523;28;20454;-60
2022/08/02 05:24:26;;;;;;;3.20;1.88;;;13.60;99.90;;;;;;5073688;28;20068;-62
2022/08/02 05:26:52;;;;;;;5.00;1.83;;;13.60;99.90;;;;;;5073648;28;20062;-60
2022/08/02 05:29:17;;;;;;;3.92;1.90;;;13.70;99.90;;;;;;5072457;28;20105;-60
2022/08/02 05:31:44;;;;;;;6.75;1.55;;;13.80;99.90;;;;;;5073280;28;20082;-60
2022/08/02 05:34:10;;;;;;;2.72;1.42;;;14.00;99.90;;;;;;5072319;28;20095;-60
2022/08/02 05:36:36;;;;;;;2.33;1.50;;;;;;;;;;5073408;28;20045;-60
2022/08/02 05:39:02;;;;;;;3.63;2.00;;;14.10;99.90;;;;;;5071910;28;20089;-60
2022/08/02 05:41:28;;;;;;;4.97;1.80;;;14.50;99.90;;;;;;5071859;28;20434;-59
2022/08/02 05:43:53;;;;;;;3.47;1.90;;;14.20;99.90;;;;;;5073376;28;20120;-60
2022/08/02 05:46:19;;;;;;;2.58;1.77;;;14.30;99.90;;;;;;5073342;28;20044;-60
2022/08/02 05:48:45;;;;;;;9.13;1.90;;;14.40;99.90;;;;;;5073317;28;20052;-60
2022/08/02 05:51:21;;;;;;;6.30;2.05;;;14.50;99.90;;;;;;5073317;28;20069;-60
2022/08/02 05:54:07;;;;;;;2.08;1.30;;;14.60;99.90;;;;;;5073051;28;20127;-60
2022/08/02 05:56:50;;;;;;;1.75;1.35;;;14.70;99.90;;;;;;5073120;28;20041;-60
2022/08/02 05:59:38;;;;;;;2.35;1.55;;;14.80;99.90;;;;;;5072145;28;20044;-60
2022/08/02 06:02:32;;;;;;;3.85;1.55;;;14.90;99.90;;;;;;5072885;28;20041;-60
2022/08/02 06:05:15;;;;;;;6.05;2.03;;;15.20;99.90;;;;;;5061643;28;20049;-60
2022/08/02 06:07:43;;;;;;;2.95;1.58;;;15.00;99.90;;;;;;5073098;28;20052;-60
2022/08/02 06:10:12;;;;;;;2.33;1.55;;;;;;;;;;5073111;28;20492;-60
2022/08/02 06:12:46;;;;;;;2.85;1.70;;;;;;;;;;5072817;28;20044;-60
2022/08/02 06:15:15;;;;;;;4.07;1.75;;;15.60;99.90;;;;;;5072536;28;20506;-60
2022/08/02 06:17:41;;;;;;;3.60;1.55;;;;;;;;;;5072889;28;20045;-60
2022/08/02 06:20:07;;;;;;;3.10;1.63;;;;;;;;;;5072709;28;20052;-61
2022/08/02 06:22:34;;;;;;;7.03;1.85;;;;;;;;;;5072599;28;20051;-60
2022/08/02 06:25:01;;;;;;;3.35;1.70;;;16.00;99.90;;;;;;5071643;28;20490;-60
2022/08/02 06:27:27;;;;;;;2.50;1.30;;;16.00;99.90;;;;;;5072580;28;20055;-61
2022/08/02 06:29:53;;;;;;;4.20;1.55;;;16.10;99.90;;;;;;5071716;28;20032;-60
2022/08/02 06:32:20;;;;;;;5.68;1.90;;;16.20;99.90;;;;;;5072868;28;20044;-60
2022/08/02 06:34:46;;;;;;;3.53;1.42;;;16.40;99.90;;;;;;5071390;28;20035;-60
2022/08/02 06:37:33;;;;;;;3.97;1.65;;;16.40;99.90;;;;;;5072501;28;20040;-59
2022/08/02 06:40:29;;;;;;;3.35;1.50;;;16.60;99.90;;;;;;5072539;28;20049;-60
2022/08/02 06:43:16;;;;;;;2.72;1.50;;;16.70;99.90;;;;;;5072787;28;20037;-60
2022/08/02 06:45:42;;;;;;;6.63;1.60;;;16.90;99.90;;;;;;5072743;28;20040;-61
2022/08/02 06:48:09;;;;;;;2.97;1.40;;;17.00;99.90;;;;;;5072726;28;20672;-60
2022/08/02 06:50:37;;;;;;;3.15;1.63;;;17.20;99.90;;;;;;5072727;28;20040;-60
2022/08/02 06:53:04;;;;;;;3.05;1.70;;;;;;;;;;5072673;28;20051;-60
2022/08/02 06:55:31;;;;;;;2.28;1.35;;;17.30;99.90;;;;;;5072625;28;20043;-60
2022/08/02 06:57:57;;;;;;;2.17;1.35;;;17.50;99.90;;;;;;5072038;28;20131;-60
2022/08/02 07:00:23;;;;;;;2.40;1.50;;;17.60;99.90;;;;;;5072446;28;20122;-61
2022/08/02 07:02:49;;;;;;;2.03;1.35;;;17.60;99.90;;;;;;5072388;28;20080;-60
2022/08/02 07:05:15;;;;;;;3.45;1.75;;;17.80;99.90;;;;;;5072371;28;20032;-60
2022/08/02 07:07:40;;;;;;;2.13;1.48;;;17.90;99.90;;;;;;5070743;28;20499;-60
2022/08/02 07:10:07;;;;;;;2.45;1.42;;;17.90;99.90;;;;;;5072266;28;20045;-61
2022/08/02 07:12:33;;;;;;;4.18;1.30;;;18.00;99.90;;;;;;5070781;28;20045;-60
2022/08/02 07:15:01;;;;;;;4.45;1.33;;;18.10;99.90;;;;;;5072136;28;20048;-60
2022/08/02 07:17:28;;;;;;;6.05;1.45;;;18.20;99.90;;;;;;5072226;28;20048;-62
2022/08/02 07:19:53;;;;;;;1.45;1.30;;;18.30;99.90;;;;;;5070951;28;20052;-62
2022/08/02 07:22:22;;;;;;;1.67;1.35;;;18.50;99.90;;;;;;5072413;28;20094;-60
2022/08/02 07:24:48;;;;;;;3.10;1.17;;;18.60;99.90;;;;;;5072084;28;20041;-60
2022/08/02 07:27:14;;;;;;;2.10;1.30;;;;;;;;;;5075107;28;20043;-61
2022/08/02 07:29:40;;;;;;;3.00;1.20;;;18.80;99.90;;;;;;5075615;28;20175;-61
2022/08/02 07:32:06;;;;;;;4.10;1.13;;;18.80;99.90;;;;;;5074695;28;20041;-60
2022/08/02 07:34:32;;;;;;;1.92;0.95;;;18.80;99.90;;;;;;5074522;28;20036;-60
2022/08/02 07:36:58;;;;;;;2.03;1.30;;;18.80;99.90;;;;;;5075734;28;20078;-60
2022/08/02 07:39:24;;;;;;;1.60;1.10;;;18.80;99.90;;;;;;5075803;28;20413;-61
2022/08/02 07:41:50;;;;;;;1.75;1.10;;;18.80;99.90;;;;;;5075663;28;20044;-60
2022/08/02 07:44:17;;;;;;;1.95;0.98;;;18.90;99.90;;;;;;5075685;28;20032;-60
2022/08/02 07:46:43;;;;;;;4.45;1.10;;;19.00;99.90;;;;;;5075528;28;20044;-60
2022/08/02 07:49:09;;;;;;;3.38;1.13;;;19.20;99.90;;;;;;5075187;28;20040;-60
2022/08/02 07:51:35;;;;;;;1.83;0.95;;;19.30;99.90;;;;;;5075447;28;20082;-61
2022/08/02 07:54:01;;;;;;;1.25;0.80;;;19.40;99.90;;;;;;5075163;28;20430;-60
2022/08/02 07:56:27;;;;;;;0.82;0.63;;;19.50;99.90;;;;;;5075097;28;20044;-60
2022/08/02 07:58:53;;;;;;;1.77;1.00;;;19.70;99.90;;;;;;5075409;28;20068;-60
2022/08/02 08:01:19;;;;;;;1.27;0.70;;;19.80;99.90;;;;;;5075409;28;20040;-60
2022/08/02 08:03:44;;;;;;;1.80;0.95;;;19.90;99.90;;;;;;5075008;28;20123;-61
2022/08/02 08:06:10;;;;;;;1.27;0.70;;;20.00;99.90;;;;;;5073828;28;20033;-61
2022/08/02 08:08:36;;;;;;;1.95;1.10;;;20.10;99.90;;;;;;5074927;28;20381;-60
2022/08/02 08:11:01;;;;;;;1.92;0.88;;;20.20;99.90;;;;;;5075244;28;20029;-61
2022/08/02 08:13:27;;;;;;;0.63;0.60;;;20.30;99.90;;;;;;5073818;28;20045;-61
2022/08/02 08:15:53;;;;;;;1.50;0.68;;;20.40;99.90;;;;;;5074774;28;20092;-60
2022/08/02 08:18:20;;;;;;;3.25;1.13;;;20.50;99.90;;;;;;5074837;28;20119;-61
2022/08/02 08:20:46;;;;;;;1.55;0.70;;;20.50;99.90;;;;;;5073811;28;20040;-60
2022/08/02 08:23:12;;;;;;;2.78;0.70;;;20.60;99.90;;;;;;5074990;28;20403;-60
2022/08/02 08:25:38;;;;;;;0.73;0.65;;;20.60;99.90;;;;;;5073611;28;20036;-60
2022/08/02 08:28:04;;;;;;;1.20;0.63;;;20.60;99.90;;;;;;5074924;28;20048;-60
2022/08/02 08:30:29;;;;;;;0.98;0.50;;;20.60;99.90;;;;;;5073405;28;20040;-60
2022/08/02 08:32:55;;;;;;;3.00;0.68;;;20.80;99.90;;;;;;5073450;28;20040;-60
2022/08/02 08:35:21;;;;;;;1.08;0.52;;;20.80;99.90;;;;;;5074686;28;20047;-60
2022/08/02 08:37:47;;;;;;;1.10;0.50;;;20.90;99.90;;;;;;5074290;28;20035;-61
2022/08/02 08:40:13;;;;;;;0.63;0.43;;;21.00;99.90;;;;;;5074503;28;20128;-60
2022/08/02 08:42:39;;;;;;;1.08;0.68;;;21.10;99.90;;;;;;5073147;28;20045;-60
2022/08/02 08:45:07;;;;;;;1.13;0.45;;;21.10;99.90;;;;;;5072870;28;20036;-60
2022/08/02 08:47:33;;;;;;;1.25;0.57;;;21.10;99.90;;;;;;5073060;28;20051;-60
2022/08/02 08:50:10;;;;;;;0.50;0.40;;;21.20;99.90;;;;;;5074362;28;20392;-60
2022/08/02 08:52:45;;;;;;;0.50;0.45;;;21.10;99.90;;;;;;5074274;28;20036;-60
2022/08/02 08:55:12;;;;;;;2.65;0.52;;;21.10;99.90;;;;;;5056094;28;20162;-61
2022/08/02 08:57:42;;;;;;;1.80;0.50;;;21.20;99.90;;;;;;5074238;28;20076;-60
2022/08/02 09:00:11;;;;;;;1.55;0.75;;;21.30;99.90;;;;;;5073931;28;20079;-60
2022/08/02 09:02:39;;;;;;;2.40;0.82;;;21.40;99.90;;;;;;5072895;28;20491;-60
2022/08/02 09:05:09;;;;;;;0.75;0.70;;;21.60;99.90;;;;;;5073801;28;20045;-62
2022/08/02 09:07:34;;;;;;;1.15;0.65;;;21.60;99.90;;;;;;5072566;28;20125;-61
2022/08/02 09:10:00;;;;;;;0.45;0.40;;;21.70;99.90;;;;;;5073958;28;20076;-61
2022/08/02 09:12:26;;;;;;;1.27;0.60;;;21.70;99.90;;;;;;5073981;28;20448;-61
2022/08/02 09:14:52;;;;;;;1.65;0.60;;;21.90;99.90;;;;;;5072336;28;20048;-60
2022/08/02 09:17:18;;;;;;;1.40;0.60;;;22.10;99.90;;;;;;5073506;28;20055;-61
2022/08/02 09:19:43;;;;;;;1.65;0.60;;;22.20;99.90;;;;;;5073825;28;20086;-60
2022/08/02 09:22:11;;;;;;;3.65;0.70;;;22.30;99.90;;;;;;5073754;28;20060;-60
2022/08/02 09:24:48;;;;;;;1.05;0.50;;;22.30;99.90;;;;;;5073675;28;20447;-60
2022/08/02 09:27:18;;;;;;;2.75;0.70;;;22.50;99.90;;;;;;5073908;28;20131;-60
2022/08/02 09:29:44;;;;;;;;;;;22.60;99.90;;;;;;5074012;28;20067;-60
2022/08/02 09:32:10;;;;;;;0.82;0.60;;;22.60;99.90;;;;;;5073585;28;19920;-62
2022/08/02 09:34:50;;;;;;;1.45;0.68;;;22.70;99.90;;;;;;5073519;28;20041;-60
2022/08/02 09:37:27;;;;;;;3.40;0.80;;;22.80;99.90;;;;;;5073190;28;20126;-60
2022/08/02 09:39:54;;;;;;;0.45;0.30;;;22.90;99.90;;;;;;5073501;28;20087;-60
2022/08/02 09:42:20;;;;;;;2.00;0.68;;;23.00;99.90;;;;;;5073240;28;20051;-60
2022/08/02 09:44:53;;;;;;;0.85;0.63;;;23.00;99.90;;;;;;5073369;28;20033;-60
2022/08/02 09:47:19;;;;;;;1.13;0.70;;;23.10;99.90;;;;;;5073054;28;20044;-60
2022/08/02 09:49:46;;;;;;;1.85;0.82;;;23.10;99.90;;;;;;5071668;28;20033;-60
2022/08/02 09:52:12;;;;;;;2.10;0.60;;;23.20;99.90;;;;;;5073334;28;20055;-60
2022/08/02 09:54:38;;;;;;;1.15;0.43;;;23.10;99.90;;;;;;5073329;28;20044;-60
2022/08/02 09:57:04;;;;;;;0.73;0.60;;;23.10;99.90;;;;;;5073217;28;20048;-61
2022/08/02 09:59:30;;;;;;;0.88;0.68;;;23.10;99.90;;;;;;5072976;28;20552;-61
2022/08/02 10:01:58;;;;;;;0.88;0.63;;;23.20;99.90;;;;;;5072818;28;20120;-60
2022/08/02 10:04:28;;;;;;;1.23;0.85;;;23.30;99.90;;;;;;5073122;28;20452;-60
2022/08/02 10:06:54;;;;;;;1.58;0.90;;;23.30;99.90;;;;;;5071964;28;20040;-60
2022/08/02 10:09:20;;;;;;;0.40;0.40;;;23.50;99.90;;;;;;5071871;28;20043;-61
2022/08/02 10:11:47;;;;;;;1.75;0.98;;;23.60;99.90;;;;;;5071758;28;20049;-62
2022/08/02 10:14:12;;;;;;;0.95;0.65;;;23.80;99.90;;;;;;5073118;28;20044;-61
2022/08/02 10:16:41;;;;;;;2.10;0.70;;;23.80;99.90;;;;;;5072560;28;20682;-61
2022/08/02 10:19:07;;;;;;;1.52;0.57;;;23.90;99.90;;;;;;5072748;28;20040;-62
2022/08/02 10:21:51;;;;;;;1.45;1.00;;;23.90;99.90;;;;;;5072990;28;20047;-60
2022/08/02 10:24:21;;;;;;;0.88;0.73;;;24.00;99.90;;;;;;5071463;28;20066;-60
2022/08/02 10:26:47;;;;;;;1.88;1.08;;;24.00;99.90;;;;;;5072985;28;20880;-60
2022/08/02 10:29:18;;;;;;;1.92;0.90;;;24.10;99.90;;;;;;5071387;28;20044;-60
2022/08/02 10:31:57;;;;;;;1.80;1.10;;;24.10;99.90;;;;;;5072906;28;20449;-61
2022/08/02 10:34:30;;;;;;;6.22;1.45;;;24.20;99.90;;;;;;5072916;28;20115;-61
2022/08/02 10:36:56;;;;;;;1.60;1.27;;;24.20;99.90;;;;;;5072796;28;20094;-60
2022/08/02 10:39:22;;;;;;;2.28;1.00;;;24.10;99.90;;;;;;5072790;28;20438;-60
2022/08/02 10:41:50;;;;;;;1.80;1.13;;;24.20;99.90;;;;;;5072752;28;20044;-60
2022/08/02 10:44:20;;;;;;;1.58;1.27;;;24.20;99.90;;;;;;5072805;28;20395;-60
2022/08/02 10:46:46;;;;;;;3.20;1.38;;;24.20;99.90;;;;;;5072771;28;20044;-61
2022/08/02 10:49:15;;;;;;;2.00;1.15;;;24.40;99.90;;;;;;5071487;28;20060;-60
2022/08/02 10:51:56;;;;;;;1.85;1.20;;;24.40;99.90;;;;;;5071084;28;20094;-61
2022/08/02 10:54:26;;;;;;;1.48;0.95;;;24.50;99.90;;;;;;5072680;28;20040;-61
2022/08/02 10:56:54;;;;;;;2.40;1.33;;;24.50;99.90;;;;;;5072465;28;20043;-60
2022/08/02 10:59:29;;;;;;;4.88;1.63;;;24.60;99.90;;;;;;5072564;28;20068;-60
2022/08/02 11:02:03;;;;;;;3.08;1.52;;;24.60;99.90;;;;;;5074874;28;20043;-60
2022/08/02 11:04:35;;;;;;;3.90;1.02;;;24.60;99.90;;;;;;5076321;28;20036;-61
2022/08/02 11:07:13;;;;;;;2.20;1.30;;;24.60;99.90;;;;;;5076293;28;20036;-61
2022/08/02 11:09:40;;;;;;;2.10;1.30;;;24.70;99.90;;;;;;5076497;28;20041;-61
2022/08/02 11:12:12;;;;;;;3.15;1.20;;;24.80;99.90;;;;;;5076178;28;20048;-61
2022/08/02 11:14:40;;;;;;;1.70;1.20;;;24.90;99.90;;;;;;5075900;28;20125;-61
2022/08/02 11:17:10;;;;;;;2.00;1.10;;;25.00;99.90;;;;;;5075495;28;20052;-60
2022/08/02 11:20:11;;;;;;;2.13;1.20;;;25.00;99.90;;;;;;5075795;28;20032;-60
2022/08/02 11:22:37;;;;;;;;;;;25.10;99.90;;;;;;5075846;28;20040;-60
2022/08/02 11:25:21;;;;;;;1.83;0.95;;;25.20;99.90;;;;;;5075850;28;20386;-61
2022/08/02 11:27:52;;;;;;;1.70;1.15;;;25.30;99.90;;;;;;5075772;28;20134;-61
2022/08/02 11:30:18;;;;;;;2.05;1.20;;;25.40;99.90;;;;;;5075510;28;20090;-60
2022/08/02 11:32:44;;;;;;;2.20;1.20;;;25.50;99.90;;;;;;5075703;28;20127;-61
2022/08/02 11:35:10;;;;;;;3.90;1.48;;;25.60;99.90;;;;;;5057615;28;20082;-60
2022/08/02 11:37:41;;;;;;;1.85;1.20;;;25.60;99.90;;;;;;5075576;28;20040;-60
2022/08/02 11:40:10;;;;;;;3.58;1.35;;;25.60;99.90;;;;;;5075316;28;20029;-60
2022/08/02 11:42:38;;;;;;;2.45;1.60;;;25.60;99.90;;;;;;5075498;28;20087;-60
2022/08/02 11:45:06;;;;;;;2.38;1.17;;;25.50;99.90;;;;;;5075314;28;20037;-61
2022/08/02 11:47:32;;;;;;;1.67;1.30;;;25.60;99.90;;;;;;5074181;28;20051;-60
2022/08/02 11:50:08;;;;;;;1.77;1.40;;;25.50;99.90;;;;;;5075476;28;20725;-61
2022/08/02 11:52:35;;;;;;;1.95;1.30;;;25.60;99.90;;;;;;5073889;28;20050;-62
2022/08/02 11:55:01;;;;;;;2.53;1.40;;;25.60;99.90;;;;;;5075431;28;20040;-61
2022/08/02 11:57:27;;;;;;;2.05;1.13;;;25.60;99.90;;;;;;5075362;28;20040;-61
2022/08/02 11:59:55;;;;;;;1.52;1.20;;;25.60;99.90;;;;;;5074971;28;20086;-60
2022/08/02 12:02:24;;;;;;;1.63;1.02;;;25.60;99.90;;;;;;5075263;28;20036;-61
2022/08/02 12:05:01;;;;;;;3.88;1.13;;;25.70;99.90;;;;;;5075238;28;20033;-61
2022/08/02 12:07:31;;;;;;;2.10;1.40;;;25.70;99.90;;;;;;5075122;28;20040;-61
2022/08/02 12:10:08;;;;;;;2.28;1.33;;;25.70;99.90;;;;;;5075190;28;20044;-61
2022/08/02 12:12:51;;;;;;;1.88;1.02;;;25.70;99.90;;;;;;5074476;28;20554;-62
2022/08/02 12:15:34;;;;;;;1.80;1.02;;;25.80;99.90;;;;;;5073344;28;20126;-60
2022/08/02 12:20:45;;;;;;;1.38;1.02;;;26.20;99.90;;;;;;5074966;28;20498;-60
2022/08/02 12:23:11;;;;;;;1.80;1.10;;;26.30;99.90;;;;;;5074926;28;20032;-61
2022/08/02 12:25:36;;;;;;;1.98;1.20;;;26.20;99.90;;;;;;5074837;28;20384;-60
2022/08/02 12:28:16;;;;;;;1.63;1.13;;;26.20;99.90;;;;;;5074767;28;20032;-61
2022/08/02 12:30:54;;;;;;;3.05;1.05;;;26.10;99.90;;;;;;5073503;28;20036;-61
2022/08/02 12:33:21;;;;;;;1.48;1.20;;;26.20;99.90;;;;;;5074729;28;20352;-60
2022/08/02 12:35:48;;;;;;;1.80;1.40;;;26.30;99.90;;;;;;5074779;28;20041;-60
2022/08/02 12:38:13;;;;;;;1.55;1.15;;;26.30;99.90;;;;;;5074703;28;20033;-61
2022/08/02 12:40:39;;;;;;;1.08;0.77;;;26.40;99.90;;;;;;5073618;28;20048;-61
2022/08/02 12:43:07;;;;;;;1.08;0.70;;;26.70;99.90;;;;;;5074617;28;20029;-61
2022/08/02 12:45:55;;;;;;;1.30;0.90;;;26.50;99.90;;;;;;5074479;28;20101;-61
2022/08/02 12:48:33;;;;;;;1.02;0.90;;;26.50;99.90;;;;;;5074396;28;20047;-61
2022/08/02 12:51:16;;;;;;;1.38;1.05;;;26.50;99.90;;;;;;5074111;28;20040;-60
2022/08/02 12:53:42;;;;;;;2.92;1.02;;;26.40;99.90;;;;;;5074127;28;20072;-60
2022/08/02 12:56:08;;;;;;;1.48;0.90;;;26.20;99.90;;;;;;5072940;28;20079;-60
2022/08/02 12:58:50;;;;;;;1.00;0.82;;;26.30;99.90;;;;;;5073867;28;20032;-62
2022/08/02 13:01:24;;;;;;;1.75;1.00;;;26.10;99.90;;;;;;5072987;28;20134;-61
2022/08/02 13:03:50;;;;;;;1.60;0.90;;;26.10;99.90;;;;;;5074092;28;20456;-61
2022/08/02 13:06:17;;;;;;;2.30;1.08;;;25.90;99.90;;;;;;5074066;28;20445;-61
2022/08/02 13:08:42;;;;;;;2.42;1.17;;;26.10;99.90;;;;;;5072489;28;20102;-61